createdAt,value
2023-05-21T00:05:24.059Z,11.25
2023-05-21T00:15:28.376Z,8.05
2023-05-21T00:25:31.578Z,14.70
2023-05-21T00:35:36.124Z,28.15
2023-05-21T00:55:44.447Z,8.70
2023-05-21T01:05:48.965Z,9.52
2023-05-21T01:15:54.768Z,11.10
2023-05-21T01:26:00.295Z,9.38
2023-05-21T01:36:09.870Z,9.70
2023-05-21T01:46:18.277Z,10.55
2023-05-21T01:56:23.156Z,10.68
2023-05-21T02:06:27.638Z,11.15
2023-05-21T02:16:30.793Z,11.03
2023-05-21T02:26:35.613Z,7.97
2023-05-21T02:36:38.683Z,7.60
2023-05-21T02:46:43.049Z,9.75
2023-05-21T02:56:46.325Z,8.50
2023-05-21T03:06:51.865Z,7.93
2023-05-21T03:16:55.033Z,12.98
2023-05-21T03:27:01.100Z,9.60
2023-05-21T03:37:04.315Z,8.18
2023-05-21T03:47:10.277Z,14.40
2023-05-21T03:57:13.874Z,8.45
2023-05-21T04:07:19.216Z,9.95
2023-05-21T04:17:22.419Z,14.40
2023-05-21T04:27:27.924Z,12.13
2023-05-21T04:37:31.538Z,11.02
2023-05-21T04:47:36.110Z,12.82
2023-05-21T04:57:40.123Z,12.80
2023-05-21T05:07:45.798Z,15.18
2023-05-21T05:17:50.538Z,13.73
2023-05-21T05:27:55.185Z,13.23
2023-05-21T05:37:58.285Z,11.52
2023-05-21T05:48:02.960Z,12.60
2023-05-21T05:58:06.755Z,15.38
2023-05-21T06:08:23.380Z,11.55
2023-05-21T06:18:26.398Z,16.75
2023-05-21T06:28:31.268Z,10.07
2023-05-21T06:38:35.447Z,13.18
2023-05-21T06:48:39.885Z,13.25
2023-05-21T07:08:49.592Z,14.18
2023-05-21T07:18:52.997Z,19.20
2023-05-21T07:28:57.548Z,12.25
2023-05-21T07:39:01.036Z,15.52
2023-05-21T07:49:06.149Z,14.23
2023-05-21T07:59:09.253Z,13.90
2023-05-21T08:09:14.559Z,14.13
2023-05-21T08:19:17.810Z,13.82
2023-05-21T08:29:22.292Z,12.57
2023-05-21T08:39:25.528Z,16.00
2023-05-21T08:49:35.728Z,20.75
2023-05-21T08:59:43.302Z,17.63
2023-05-21T09:09:58.163Z,12.52
2023-05-21T09:20:13.596Z,15.82
2023-05-21T09:30:26.022Z,14.43
2023-05-21T09:40:46.276Z,17.48
2023-05-21T09:50:50.891Z,16.45
2023-05-21T10:00:54.235Z,17.15
2023-05-21T10:10:58.577Z,18.33
2023-05-21T10:21:02.336Z,17.00
2023-05-21T10:31:07.839Z,14.52
2023-05-21T10:41:12.587Z,17.08
2023-05-21T10:51:25.035Z,20.17
2023-05-21T11:01:30.242Z,19.25
2023-05-21T11:11:46.195Z,18.05
2023-05-21T11:21:52.289Z,17.45
2023-05-21T11:32:02.966Z,18.20
2023-05-21T11:42:06.416Z,23.65
2023-05-21T11:52:12.058Z,20.40
2023-05-21T12:02:18.879Z,20.38
2023-05-21T12:12:25.694Z,16.10
2023-05-21T12:22:29.910Z,20.15
2023-05-21T12:32:34.421Z,18.98
2023-05-21T12:42:40.123Z,24.27
2023-05-21T12:52:45.583Z,24.35
2023-05-21T13:02:48.962Z,21.85
2023-05-21T13:12:53.378Z,20.30
2023-05-21T13:22:56.652Z,19.23
2023-05-21T13:43:04.249Z,17.70
2023-05-21T13:53:08.976Z,17.23
2023-05-21T14:03:12.291Z,22.45
2023-05-21T14:13:20.035Z,20.33
2023-05-21T14:23:23.362Z,20.27
2023-05-21T14:33:27.727Z,16.73
2023-05-21T14:43:30.760Z,16.38
2023-05-21T14:53:35.134Z,24.00
2023-05-21T15:03:38.175Z,20.73
2023-05-21T15:13:42.652Z,14.80
2023-05-21T15:23:47.406Z,14.30
2023-05-21T15:33:51.836Z,16.38
2023-05-21T15:43:55.033Z,16.10
2023-05-21T15:53:59.697Z,17.98
2023-05-21T16:04:03.225Z,19.42
2023-05-21T16:14:07.793Z,21.15
2023-05-21T16:24:10.774Z,18.20
2023-05-21T16:34:15.405Z,16.20
2023-05-21T16:44:20.219Z,15.65
2023-05-21T16:54:24.791Z,19.25
2023-05-21T17:04:27.818Z,20.20
2023-05-21T17:14:34.331Z,21.00
2023-05-21T17:24:37.946Z,23.08
2023-05-21T17:34:42.317Z,19.73
2023-05-21T17:44:45.252Z,23.77
2023-05-21T17:54:49.598Z,16.00
2023-05-21T18:04:52.656Z,16.67
2023-05-21T18:14:57.145Z,21.75
2023-05-21T18:25:00.445Z,11.30
2023-05-21T18:35:05.260Z,14.90
2023-05-21T18:45:10.294Z,16.40
2023-05-21T18:55:15.450Z,19.60
2023-05-21T19:05:18.496Z,12.68
2023-05-21T19:15:22.975Z,17.60
2023-05-21T19:25:26.450Z,19.55
2023-05-21T19:35:31.342Z,15.73
2023-05-21T19:45:34.551Z,13.65
2023-05-21T19:55:38.972Z,23.27
2023-05-21T20:05:41.936Z,15.55
2023-05-21T20:15:48.013Z,17.08
2023-05-21T20:25:51.190Z,15.63
2023-05-21T20:35:55.564Z,22.42
2023-05-21T20:46:00.800Z,17.33
2023-05-21T20:56:08.372Z,17.27
2023-05-21T21:06:12.286Z,17.77
2023-05-21T21:16:16.726Z,20.67
2023-05-21T21:26:19.842Z,22.65
2023-05-21T21:36:24.234Z,25.65
2023-05-21T21:56:32.048Z,25.92
2023-05-21T22:06:35.042Z,33.45
2023-05-21T22:16:41.566Z,28.65
2023-05-21T22:26:44.844Z,30.58
2023-05-21T22:36:49.227Z,32.85
2023-05-21T22:56:56.731Z,36.47
2023-05-21T23:06:59.903Z,35.33
2023-05-21T23:17:04.540Z,33.58
2023-05-21T23:27:07.944Z,37.28
2023-05-21T23:37:12.295Z,38.28
2023-05-21T23:47:15.295Z,41.88
2023-05-21T23:57:19.576Z,43.63
